Time;durP1;ratioP1;P1;durP2;ratioP2;P2;SDS_P1;SDS_P2;PMS_P1;PMS_P2;Temp;Humidity;BMP_temperature;BMP_pressure;BME280_temperature;BME280_humidity;BME280_pressure;Samples;Min_cycle;Max_cycle;Signal;HPM_P1;HPM_P2
2023/09/10 09:53:19;;;;;;;11.52;10.20;;;21.00;92.10;;;;;;5568117;22;15064387;-86
2023/09/10 09:55:47;;;;;;;11.75;10.50;;;21.10;92.10;;;;;;6251073;22;20241;-87
2023/09/10 09:58:23;;;;;;;11.60;10.40;;;21.00;92.00;;;;;;6225835;22;20658;-86
2023/09/10 10:00:57;;;;;;;11.07;9.98;;;21.10;92.10;;;;;;6218303;23;20153;-86
2023/09/10 10:03:32;;;;;;;11.65;10.55;;;21.10;92.00;;;;;;6194596;23;20156;-85
2023/09/10 10:06:08;;;;;;;;;;;;;;;;;;;;;
2023/09/10 10:08:47;;;;;;;11.85;10.50;;;21.00;92.20;;;;;;6185385;23;20240;-85
2023/09/10 10:11:28;;;;;;;11.80;10.60;;;21.00;92.30;;;;;;6195061;23;20142;-85
2023/09/10 10:14:44;;;;;;;11.18;10.07;;;21.10;92.20;;;;;;6125754;23;20227;-85
2023/09/10 10:16:53;;;;;;;11.20;10.05;;;21.10;92.00;;;;;;6036490;23;20193;-85
2023/09/10 10:19:28;;;;;;;11.73;10.50;;;21.10;92.00;;;;;;6019877;23;20541;-85
2023/09/10 10:21:57;;;;;;;11.73;10.52;;;21.10;92.00;;;;;;6043515;23;20212;-85
2023/09/10 10:24:35;;;;;;;10.88;9.73;;;21.10;91.90;;;;;;6025280;23;20200;-86
2023/09/10 10:27:31;;;;;;;11.18;10.07;;;21.20;91.90;;;;;;6032745;23;20160;-85
2023/09/10 10:30:09;;;;;;;11.55;10.35;;;21.20;91.90;;;;;;6100119;23;20223;-84
2023/09/10 10:32:44;;;;;;;11.43;9.88;;;21.20;91.80;;;;;;6056033;23;20604;-85
2023/09/10 10:35:11;;;;;;;12.13;10.93;;;21.20;91.90;;;;;;6076974;23;20182;-85
2023/09/10 10:41:27;;;;;;;13.32;10.70;;;21.20;91.90;;;;;;6155605;23;20235;-86
2023/09/10 10:44:27;;;;;;;12.65;10.98;;;21.20;91.90;;;;;;6066186;23;20160;-86
2023/09/10 10:47:05;;;;;;;11.82;10.63;;;21.20;91.90;;;;;;6093471;23;20158;-85
2023/09/10 10:49:49;;;;;;;12.05;10.85;;;21.20;92.00;;;;;;6082747;23;20155;-85
2023/09/10 10:52:22;;;;;;;11.63;10.43;;;21.20;92.10;;;;;;6101855;23;20485;-86
2023/09/10 10:54:56;;;;;;;11.20;10.07;;;21.20;92.10;;;;;;6128070;23;20206;-85
2023/09/10 10:57:28;;;;;;;11.65;10.45;;;21.20;92.10;;;;;;6081181;23;20178;-86
2023/09/10 11:00:24;;;;;;;10.48;9.38;;;21.20;92.00;;;;;;6105122;23;20158;-85
2023/09/10 11:03:13;;;;;;;12.50;11.20;;;21.30;91.90;;;;;;6088941;23;20155;-86
2023/09/10 11:06:08;;;;;;;11.90;10.65;;;21.20;91.90;;;;;;6103068;23;20291;-85
2023/09/10 11:08:39;;;;;;;12.75;11.05;;;21.30;92.10;;;;;;6161896;23;20273;-85
2023/09/10 11:11:42;;;;;;;11.35;10.23;;;21.20;92.00;;;;;;6139460;23;20153;-85
2023/09/10 11:14:12;;;;;;;12.40;11.10;;;21.30;92.00;;;;;;6132701;23;20201;-85
2023/09/10 11:16:45;;;;;;;12.13;10.35;;;21.30;92.00;;;;;;6133781;23;20513;-87
2023/09/10 11:19:58;;;;;;;12.73;10.13;;;21.20;92.00;;;;;;6131583;23;20168;-86
2023/09/10 11:22:57;;;;;;;11.52;10.05;;;21.20;92.10;;;;;;6118372;23;20552;-85
2023/09/10 11:25:26;;;;;;;11.20;10.10;;;21.20;92.00;;;;;;6125418;23;20164;-85
2023/09/10 11:28:08;;;;;;;10.90;9.80;;;21.20;92.00;;;;;;6053985;23;20219;-86
2023/09/10 11:30:44;;;;;;;10.93;9.82;;;21.30;92.40;;;;;;6074382;23;20160;-85
2023/09/10 11:33:35;;;;;;;11.50;10.32;;;21.30;91.90;;;;;;6071839;23;20263;-85
2023/09/10 11:36:06;;;;;;;11.75;10.55;;;21.30;91.90;;;;;;6070123;23;20181;-85
2023/09/10 11:38:44;;;;;;;11.60;10.40;;;21.30;91.90;;;;;;6095801;23;20630;-85
2023/09/10 11:41:09;;;;;;;11.18;10.07;;;21.40;91.80;;;;;;6016017;23;20666;-85
2023/09/10 11:47:05;;;;;;;11.35;10.23;;;21.30;91.90;;;;;;6038377;23;20145;-85
2023/09/10 11:49:36;;;;;;;11.20;10.00;;;21.40;91.80;;;;;;6010056;23;20161;-85
2023/09/10 11:52:25;;;;;;;11.05;9.95;;;21.40;91.70;;;;;;5981388;24;20172;-85
2023/09/10 11:55:18;;;;;;;10.75;9.65;;;21.40;91.70;;;;;;5879362;24;20600;-86
2023/09/10 11:57:50;;;;;;;11.85;10.45;;;21.40;91.70;;;;;;5839772;24;20161;-85
2023/09/10 12:00:22;;;;;;;11.43;10.23;;;21.40;91.80;;;;;;5851670;24;20571;-86
2023/09/10 12:02:58;;;;;;;11.13;10.02;;;21.40;91.80;;;;;;5892507;24;20222;-86
2023/09/10 12:06:24;;;;;;;11.45;10.25;;;21.40;91.90;;;;;;5874496;24;20240;-85
2023/09/10 12:08:49;;;;;;;11.15;10.02;;;21.40;91.90;;;;;;5874624;24;20162;-85
2023/09/10 12:11:17;;;;;;;10.93;9.82;;;21.40;91.90;;;;;;5869716;24;20181;-85
2023/09/10 14:38:42;;;;;;;9.90;8.90;;;21.60;92.60;;;;;;6294232;22;20196;-86
2023/09/10 14:41:20;;;;;;;9.70;8.73;;;21.60;92.70;;;;;;6076244;23;20274;-85
2023/09/10 14:43:59;;;;;;;10.00;9.00;;;21.60;92.60;;;;;;6028802;23;20198;-85
2023/09/10 14:46:43;;;;;;;9.55;8.65;;;21.70;92.60;;;;;;6008728;23;20604;-86
2023/09/10 14:49:22;;;;;;;9.13;8.23;;;21.70;92.60;;;;;;6077669;23;20144;-85
2023/09/10 14:51:59;;;;;;;10.00;9.00;;;21.70;92.50;;;;;;6019016;23;20557;-86
2023/09/10 14:54:38;;;;;;;10.85;9.75;;;21.70;92.40;;;;;;6017511;23;20156;-85
2023/09/10 14:57:49;;;;;;;10.00;9.00;;;21.70;92.50;;;;;;5995477;23;20226;-87
2023/09/10 15:00:56;;;;;;;10.60;9.55;;;21.70;92.50;;;;;;6019506;23;20661;-85
2023/09/10 15:03:37;;;;;;;9.88;8.88;;;21.70;92.40;;;;;;6010524;23;20493;-86
2023/09/10 15:06:20;;;;;;;10.00;9.00;;;21.70;92.40;;;;;;5960348;24;20194;-86
2023/09/10 15:08:53;;;;;;;9.57;8.57;;;21.70;92.40;;;;;;5932027;24;20223;-86
2023/09/10 15:11:52;;;;;;;10.18;9.18;;;21.70;92.30;;;;;;5951962;24;20229;-86
2023/09/10 15:14:41;;;;;;;9.93;8.93;;;21.80;92.30;;;;;;5902914;24;20165;-86
2023/09/10 15:17:38;;;;;;;10.25;9.15;;;21.70;92.20;;;;;;5911382;23;20193;-88
2023/09/10 15:20:14;;;;;;;9.82;8.82;;;21.70;92.30;;;;;;5965706;23;20232;-86
2023/09/10 15:22:50;;;;;;;10.70;9.60;;;21.70;92.30;;;;;;5911054;24;20167;-87
2023/09/10 15:25:19;;;;;;;10.07;9.07;;;21.70;92.20;;;;;;5956210;24;20498;-87
2023/09/10 15:27:48;;;;;;;10.32;9.25;;;21.80;92.20;;;;;;5952809;24;20537;-87
2023/09/10 15:30:30;;;;;;;9.68;8.68;;;21.70;92.20;;;;;;5919379;24;20207;-87
2023/09/10 15:33:07;;;;;;;10.30;9.30;;;21.80;92.10;;;;;;5925037;24;20228;-87
2023/09/10 15:35:52;;;;;;;9.55;8.65;;;21.80;92.10;;;;;;5948048;24;20173;-86
2023/09/10 15:38:27;;;;;;;10.18;9.18;;;21.80;92.10;;;;;;5989788;23;20153;-85
2023/09/10 15:41:08;;;;;;;10.32;9.25;;;21.70;92.20;;;;;;6014139;23;20162;-86
2023/09/10 15:43:40;;;;;;;10.25;9.25;;;21.70;92.30;;;;;;5979847;23;20670;-86
2023/09/10 15:46:39;;;;;;;;;;;;;;;;;;;;;
2023/09/10 15:49:32;;;;;;;10.05;9.05;;;21.70;92.40;;;;;;5896910;24;20157;-88
2023/09/10 15:52:14;;;;;;;9.77;8.80;;;21.60;92.50;;;;;;5885546;24;20173;-85
2023/09/10 15:54:58;;;;;;;9.60;8.70;;;21.60;92.50;;;;;;5890028;24;20166;-86
2023/09/10 15:57:50;;;;;;;9.90;8.90;;;21.70;92.50;;;;;;5890728;24;20166;-86
2023/09/10 16:00:26;;;;;;;9.32;8.40;;;21.70;92.40;;;;;;5888957;24;20174;-86
2023/09/10 16:03:03;;;;;;;9.93;8.93;;;21.70;92.40;;;;;;5891704;24;20267;-87
2023/09/10 16:05:41;;;;;;;9.80;8.80;;;21.60;92.50;;;;;;5918434;24;20236;-85
2023/09/10 16:08:27;;;;;;;9.38;8.38;;;21.70;92.40;;;;;;5951731;24;20160;-85
2023/09/10 16:11:21;;;;;;;10.25;9.25;;;21.80;92.40;;;;;;5906205;24;20218;-87
2023/09/10 16:14:09;;;;;;;;;;;;;;;;;;;;;
2023/09/10 16:16:54;;;;;;;10.05;9.02;;;21.70;92.40;;;;;;5949953;24;20722;-85
2023/09/10 16:19:34;;;;;;;10.10;9.07;;;21.70;92.40;;;;;;5914066;24;20167;-87
2023/09/10 16:22:22;;;;;;;10.10;9.10;;;21.70;92.40;;;;;;5931048;24;20216;-87
2023/09/10 16:25:04;;;;;;;10.25;9.00;;;21.70;92.40;;;;;;5979757;24;20151;-86
2023/09/10 16:27:55;;;;;;;10.48;9.38;;;21.70;92.40;;;;;;5929913;24;20164;-88
2023/09/10 16:30:50;;;;;;;10.65;8.60;;;21.70;92.40;;;;;;5971281;23;20247;-86
2023/09/10 16:36:23;;;;;;;9.68;8.75;;;21.70;92.40;;;;;;5951087;24;20243;-86
2023/09/10 16:39:10;;;;;;;10.48;9.45;;;21.70;92.50;;;;;;5793822;24;20229;-85
2023/09/10 16:42:23;;;;;;;9.73;8.82;;;21.70;92.50;;;;;;5699498;25;20162;-86
2023/09/10 17:36:23;;;;;;;12.52;11.00;;;21.40;93.40;;;;;;6245523;23;20180;-86
2023/09/10 17:38:52;;;;;;;12.15;10.88;;;21.30;93.40;;;;;;6228005;22;20185;-86
2023/09/10 17:41:35;;;;;;;12.40;11.10;;;21.30;93.40;;;;;;6186152;23;20150;-86
2023/09/10 17:44:33;;;;;;;12.93;11.63;;;21.30;93.40;;;;;;6139175;23;20150;-86
2023/09/10 17:47:01;;;;;;;12.40;11.10;;;21.30;93.40;;;;;;6165974;23;20154;-86
2023/09/10 17:49:35;;;;;;;14.60;12.00;;;21.20;93.40;;;;;;6135022;23;20854;-85
2023/09/10 17:52:47;;;;;;;12.23;10.73;;;21.20;93.40;;;;;;6161840;23;20228;-85
2023/09/10 17:56:13;;;;;;;12.57;11.25;;;21.20;93.50;;;;;;6119378;23;20193;-86
2023/09/10 17:58:49;;;;;;;12.00;10.70;;;21.20;93.50;;;;;;6094186;23;20157;-84
2023/09/10 18:01:41;;;;;;;12.75;11.25;;;21.10;93.50;;;;;;6048619;23;20475;-84
2023/09/10 18:04:23;;;;;;;12.13;10.82;;;21.10;93.60;;;;;;6094798;23;20160;-86
2023/09/10 18:07:26;;;;;;;;;;;;;;;;;;;;;
2023/09/10 18:10:01;;;;;;;12.77;10.80;;;21.10;93.50;;;;;;5963704;24;20246;-86
2023/09/10 18:12:41;;;;;;;12.32;10.98;;;21.00;93.50;;;;;;5924884;24;20187;-86
2023/09/10 18:16:12;;;;;;;13.20;11.45;;;21.10;93.60;;;;;;5923254;24;20192;-86
2023/09/10 18:22:53;;;;;;;12.32;10.77;;;21.00;93.60;;;;;;5897271;24;20240;-85
2023/09/10 18:25:34;;;;;;;13.93;11.52;;;21.00;93.60;;;;;;5866425;24;20162;-85
2023/09/10 18:28:09;;;;;;;11.85;10.40;;;20.90;93.50;;;;;;5870481;24;20176;-86
2023/09/10 18:34:31;;;;;;;11.77;10.45;;;20.90;93.50;;;;;;5737092;24;20224;-87
2023/09/10 18:37:09;;;;;;;12.15;10.73;;;20.80;93.50;;;;;;5781720;24;20212;-87
2023/09/10 18:40:23;;;;;;;12.50;11.18;;;20.80;93.60;;;;;;5747777;24;20201;-87
2023/09/10 18:43:41;;;;;;;11.65;10.35;;;20.80;93.60;;;;;;5618265;25;20223;-86
2023/09/10 18:46:13;;;;;;;13.18;11.00;;;20.80;93.60;;;;;;5619177;25;20256;-87
2023/09/10 18:48:51;;;;;;;12.63;11.02;;;20.80;93.70;;;;;;5553716;25;20203;-87
2023/09/10 18:52:11;;;;;;;12.05;10.55;;;20.80;93.70;;;;;;5521772;25;20173;-86
2023/09/10 18:55:11;;;;;;;12.93;11.02;;;20.80;93.70;;;;;;5564121;25;20248;-85
2023/09/10 18:58:06;;;;;;;12.70;10.90;;;20.70;93.80;;;;;;5643061;25;20190;-85
2023/09/10 19:01:08;;;;;;;;;;;;;;;;;;;;;
2023/09/10 19:03:48;;;;;;;12.55;10.98;;;20.70;93.90;;;;;;5707957;25;20236;-85
2023/09/10 19:10:11;;;;;;;12.52;11.18;;;20.70;93.80;;;;;;5627638;25;20272;-86
2023/09/10 19:12:58;;;;;;;11.52;10.32;;;20.70;93.80;;;;;;5615928;25;20168;-84
2023/09/10 19:16:13;;;;;;;;;;;;;;;;;;;;;
2023/09/10 19:18:49;;;;;;;12.45;10.73;;;20.60;93.80;;;;;;5649124;25;20327;-85
2023/09/10 19:24:39;;;;;;;12.18;10.52;;;20.60;93.70;;;;;;5728839;24;20157;-86
2023/09/10 19:27:27;;;;;;;10.32;9.20;;;20.60;93.70;;;;;;5712072;25;20237;-85
2023/09/10 19:30:25;;;;;;;12.48;10.43;;;20.70;93.60;;;;;;5662149;25;20175;-86
2023/09/10 19:33:04;;;;;;;;;;;;;;;;;;;;;
2023/09/10 19:36:11;;;;;;;11.02;9.77;;;20.60;93.60;;;;;;5637139;25;20721;-85
2023/09/10 19:38:55;;;;;;;11.77;10.32;;;20.60;93.60;;;;;;5702001;25;20234;-87
2023/09/10 19:41:39;;;;;;;11.73;10.25;;;20.60;93.60;;;;;;5742496;24;20239;-85
2023/09/10 19:44:10;;;;;;;10.88;9.73;;;20.60;93.60;;;;;;5720972;24;20249;-86
2023/09/10 19:46:46;;;;;;;11.85;9.88;;;20.60;93.60;;;;;;5894704;24;20160;-85
2023/09/10 19:49:38;;;;;;;;;;;;;;;;;;;;;
2023/09/10 19:52:36;;;;;;;11.93;9.48;;;20.60;93.50;;;;;;5958035;23;20237;-86
2023/09/10 20:22:40;;;;;;;12.73;10.65;;;20.60;93.80;;;;;;6191332;23;20146;-86
2023/09/10 20:25:09;;;;;;;12.77;11.30;;;20.60;93.70;;;;;;6114556;23;20146;-86
2023/09/10 20:28:19;;;;;;;13.30;11.07;;;20.60;93.60;;;;;;6069371;23;20160;-86
2023/09/10 20:31:38;;;;;;;14.90;11.68;;;20.60;93.60;;;;;;5951597;24;20160;-88
2023/09/10 20:34:14;;;;;;;13.15;11.10;;;20.70;93.60;;;;;;5917774;24;20496;-87
2023/09/10 20:37:12;;;;;;;12.75;10.80;;;20.60;93.60;;;;;;5951850;24;20192;-86
2023/09/10 20:39:54;;;;;;;13.70;11.00;;;20.60;93.70;;;;;;5892585;24;20282;-87
2023/09/10 20:43:01;;;;;;;13.95;11.68;;;20.60;93.60;;;;;;5865314;24;20165;-88
2023/09/10 20:45:38;;;;;;;14.57;11.73;;;20.60;93.60;;;;;;5868784;24;20162;-87
2023/09/10 20:48:54;;;;;;;15.07;12.48;;;20.60;93.60;;;;;;5842543;24;20166;-85
2023/09/10 20:51:40;;;;;;;14.85;12.15;;;20.70;93.70;;;;;;5723788;25;20173;-86
2023/09/10 20:58:28;;;;;;;15.57;12.20;;;20.70;93.60;;;;;;5686167;25;20174;-87
2023/09/10 21:00:58;;;;;;;14.88;11.93;;;20.70;93.60;;;;;;5755409;24;20168;-87
2023/09/10 21:04:01;;;;;;;;;;;;;;;;;;;;;
2023/09/10 21:06:44;;;;;;;13.88;12.20;;;20.70;93.50;;;;;;5788344;24;20250;-85
2023/09/10 21:09:49;;;;;;;13.93;12.10;;;20.70;93.50;;;;;;5742864;24;20690;-86
2023/09/10 21:12:31;;;;;;;;;;;;;;;;;;;;;
2023/09/10 21:15:11;;;;;;;14.05;11.98;;;20.70;93.50;;;;;;5634934;25;20736;-87
2023/09/10 21:18:16;;;;;;;14.13;12.20;;;20.70;93.50;;;;;;5654996;25;20163;-87
2023/09/10 21:21:13;;;;;;;13.88;12.00;;;20.70;93.50;;;;;;5674440;25;20212;-87
2023/09/10 21:26:58;;;;;;;14.90;12.70;;;20.70;93.50;;;;;;5780439;24;20194;-87
2023/09/10 21:29:59;;;;;;;14.45;11.57;;;20.70;93.50;;;;;;5762282;24;20561;-85
2023/09/10 21:33:06;;;;;;;;;;;;;;;;;;;;;
2023/09/10 21:35:41;;;;;;;14.15;11.68;;;20.70;93.40;;;;;;5675495;25;20288;-87
2023/09/10 21:38:42;;;;;;;14.65;12.13;;;20.70;93.50;;;;;;5705480;25;20159;-87
2023/09/10 21:41:44;;;;;;;13.80;12.07;;;20.70;93.50;;;;;;5668124;25;20233;-88
2023/09/10 21:44:22;;;;;;;15.00;12.13;;;20.70;93.50;;;;;;5702441;25;20166;-85
2023/09/10 21:47:12;;;;;;;;;;;;;;;;;;;;;
2023/09/10 21:50:00;;;;;;;;;;;;;;;;;;;;;
2023/09/10 21:52:54;;;;;;;13.68;12.18;;;20.70;93.50;;;;;;5847172;24;20158;-85
2023/09/10 21:55:56;;;;;;;14.75;12.23;;;20.70;93.40;;;;;;5843497;24;20194;-87
2023/09/10 21:59:14;;;;;;;16.15;12.57;;;20.70;93.50;;;;;;5886432;24;20160;-85
2023/09/10 22:02:08;;;;;;;14.80;12.13;;;20.60;93.50;;;;;;5904394;24;20152;-87
2023/09/10 22:04:46;;;;;;;14.70;12.25;;;20.70;93.50;;;;;;5819211;24;20186;-86
